createdAt,value
2018-12-08T00:01:31.650Z,83.63
2018-12-08T00:03:59.817Z,84.03
2018-12-08T00:06:27.965Z,84.24
2018-12-08T00:08:56.253Z,84.97
2018-12-08T00:11:24.390Z,85.63
2018-12-08T00:13:52.724Z,85.30
2018-12-08T00:16:21.040Z,84.88
2018-12-08T00:18:49.182Z,85.10
2018-12-08T00:21:17.353Z,85.21
2018-12-08T00:23:45.501Z,84.46
2018-12-08T00:26:13.631Z,84.50
2018-12-08T00:28:41.886Z,84.60
2018-12-08T00:31:21.465Z,84.88
2018-12-08T00:33:49.673Z,84.48
2018-12-08T00:36:17.842Z,83.98
2018-12-08T00:38:46.189Z,83.14
2018-12-08T00:41:14.323Z,83.87
2018-12-08T00:43:42.504Z,82.96
2018-12-08T00:46:10.682Z,82.56
2018-12-08T00:48:38.878Z,81.93
2018-12-08T00:51:07.034Z,82.53
2018-12-08T00:53:35.246Z,81.88
2018-12-08T00:56:03.460Z,82.42
2018-12-08T00:58:31.618Z,81.26
2018-12-08T01:00:59.768Z,81.04
2018-12-08T01:03:28.003Z,81.33
2018-12-08T01:05:56.178Z,81.06
2018-12-08T01:08:24.413Z,81.56
2018-12-08T01:10:52.581Z,80.88
2018-12-08T01:13:20.930Z,80.71
2018-12-08T01:15:49.108Z,80.03
2018-12-08T01:18:17.350Z,79.74
2018-12-08T01:20:45.498Z,78.99
2018-12-08T01:23:13.794Z,78.29
2018-12-08T01:25:42.035Z,78.39
2018-12-08T01:28:10.165Z,77.77
2018-12-08T01:30:38.334Z,78.18
2018-12-08T01:33:06.489Z,78.54
2018-12-08T01:35:34.688Z,78.04
2018-12-08T01:38:02.905Z,77.83
2018-12-08T01:40:31.782Z,78.23
2018-12-08T01:43:00.126Z,78.55
2018-12-08T01:45:28.401Z,77.49
2018-12-08T01:47:56.774Z,77.64
2018-12-08T01:50:25.075Z,78.05
2018-12-08T01:52:53.222Z,77.78
2018-12-08T01:55:21.368Z,76.79
2018-12-08T01:57:49.585Z,76.91
2018-12-08T02:00:17.852Z,76.58
2018-12-08T02:02:46.009Z,76.64
2018-12-08T02:05:14.138Z,76.72
2018-12-08T02:07:42.350Z,76.63
2018-12-08T02:10:10.672Z,76.55
2018-12-08T02:12:38.798Z,76.35
2018-12-08T02:15:07.277Z,76.38
2018-12-08T02:17:35.405Z,76.50
2018-12-08T02:20:03.691Z,76.63
2018-12-08T02:22:32.048Z,76.86
2018-12-08T02:25:00.200Z,76.00
2018-12-08T02:27:28.338Z,75.87
2018-12-08T02:29:56.574Z,76.33
2018-12-08T02:32:24.718Z,76.03
2018-12-08T02:34:53.046Z,76.13
2018-12-08T02:37:21.749Z,75.87
2018-12-08T02:39:50.199Z,75.24
2018-12-08T02:42:18.504Z,75.58
2018-12-08T02:44:46.631Z,75.93
2018-12-08T02:47:14.788Z,75.74
2018-12-08T02:49:43.036Z,75.85
2018-12-08T02:52:11.302Z,76.06
2018-12-08T02:54:39.749Z,75.79
2018-12-08T02:57:07.975Z,75.18
2018-12-08T02:59:36.200Z,75.96
2018-12-08T03:02:04.647Z,75.48
2018-12-08T03:04:32.790Z,74.64
2018-12-08T03:07:00.955Z,73.97
2018-12-08T03:09:29.089Z,74.84
2018-12-08T03:11:57.362Z,74.38
2018-12-08T03:14:25.499Z,74.07
2018-12-08T03:16:53.835Z,73.82
2018-12-08T03:19:21.986Z,73.25
2018-12-08T03:21:50.257Z,73.96
2018-12-08T03:24:18.422Z,73.32
2018-12-08T03:26:46.541Z,73.66
2018-12-08T03:29:14.745Z,73.55
2018-12-08T03:31:42.989Z,74.08
2018-12-08T03:34:11.265Z,73.94
2018-12-08T03:36:39.420Z,73.82
2018-12-08T03:39:08.571Z,73.87
2018-12-08T03:41:36.811Z,74.04
2018-12-08T03:44:05.192Z,75.33
2018-12-08T03:46:33.426Z,75.43
2018-12-08T03:49:01.577Z,75.10
2018-12-08T03:51:29.979Z,75.03
2018-12-08T03:53:58.117Z,75.24
2018-12-08T03:56:26.368Z,75.32
2018-12-08T03:58:54.496Z,75.27
2018-12-08T04:01:22.718Z,75.42
2018-12-08T04:03:50.857Z,75.61
2018-12-08T04:06:19.109Z,74.62
2018-12-08T04:08:47.240Z,75.11
2018-12-08T04:11:15.389Z,75.24
2018-12-08T04:13:43.518Z,75.30
2018-12-08T04:16:12.134Z,75.81
2018-12-08T04:18:40.290Z,77.16
2018-12-08T04:21:08.609Z,77.88
2018-12-08T04:23:36.893Z,77.48
2018-12-08T04:26:05.063Z,78.35
2018-12-08T04:28:33.201Z,79.80
2018-12-08T04:31:01.382Z,80.55
2018-12-08T04:33:29.501Z,81.39
2018-12-08T04:35:57.725Z,81.65
2018-12-08T04:38:25.834Z,82.58
2018-12-08T04:40:54.010Z,83.06
2018-12-08T04:43:22.180Z,84.10
2018-12-08T04:45:50.369Z,84.39
2018-12-08T04:48:18.542Z,84.59
2018-12-08T04:50:46.722Z,84.14
2018-12-08T04:53:14.866Z,84.13
2018-12-08T04:55:43.417Z,84.39
2018-12-08T04:58:11.550Z,83.51
2018-12-08T05:00:39.820Z,82.73
2018-12-08T05:03:08.304Z,81.66
2018-12-08T05:05:36.481Z,81.59
2018-12-08T05:08:04.610Z,80.68
2018-12-08T05:10:32.818Z,80.43
2018-12-08T05:13:00.957Z,80.84
2018-12-08T05:15:29.193Z,80.95
2018-12-08T05:17:57.343Z,80.08
2018-12-08T05:20:25.573Z,80.12
2018-12-08T05:22:53.691Z,79.63
2018-12-08T05:25:21.872Z,78.84
2018-12-08T05:27:50.037Z,78.48
2018-12-08T05:30:18.190Z,78.01
2018-12-08T05:32:46.350Z,76.94
2018-12-08T05:35:14.797Z,77.83
2018-12-08T05:37:43.026Z,77.54
2018-12-08T05:40:11.325Z,76.85
2018-12-08T05:42:39.477Z,76.21
2018-12-08T05:45:07.706Z,75.90
2018-12-08T05:47:35.830Z,75.65
2018-12-08T05:50:04.556Z,75.09
2018-12-08T05:52:34.612Z,75.83
2018-12-08T05:55:03.149Z,74.87
2018-12-08T05:57:31.277Z,74.54
2018-12-08T05:59:59.461Z,74.06
2018-12-08T06:02:27.625Z,74.48
2018-12-08T06:04:55.761Z,74.02
2018-12-08T06:07:23.925Z,74.29
2018-12-08T06:09:52.069Z,74.25
2018-12-08T06:12:20.259Z,74.23
2018-12-08T06:14:48.373Z,74.36
2018-12-08T06:17:16.518Z,73.93
2018-12-08T06:19:44.644Z,73.90
2018-12-08T06:22:12.835Z,74.00
2018-12-08T06:24:40.966Z,73.65
2018-12-08T06:27:50.069Z,74.18
2018-12-08T06:30:18.235Z,74.01
2018-12-08T06:32:46.873Z,74.48
2018-12-08T06:35:15.199Z,74.54
2018-12-08T06:37:43.343Z,74.20
2018-12-08T06:40:11.509Z,73.12
2018-12-08T06:42:39.841Z,73.63
2018-12-08T06:45:08.205Z,73.88
2018-12-08T06:47:36.379Z,73.20
2018-12-08T06:50:04.750Z,73.36
2018-12-08T06:52:33.038Z,72.42
2018-12-08T06:55:01.185Z,72.89
2018-12-08T06:57:29.424Z,73.35
2018-12-08T06:59:57.787Z,73.14
2018-12-08T07:02:25.940Z,73.28
2018-12-08T07:04:54.077Z,73.65
2018-12-08T07:07:22.300Z,73.84
2018-12-08T07:09:50.517Z,75.06
2018-12-08T07:12:18.881Z,73.97
2018-12-08T07:14:47.001Z,74.36
2018-12-08T07:17:15.203Z,74.44
2018-12-08T07:19:43.331Z,74.07
2018-12-08T07:22:11.759Z,73.85
2018-12-08T07:24:39.881Z,73.35
2018-12-08T07:27:08.067Z,73.73
2018-12-08T07:29:36.186Z,73.74
2018-12-08T07:32:04.559Z,73.88
2018-12-08T07:34:32.767Z,74.03
2018-12-08T07:37:00.922Z,73.41
2018-12-08T07:39:29.070Z,73.37
2018-12-08T07:41:57.190Z,73.89
2018-12-08T07:44:25.318Z,73.44
2018-12-08T07:46:53.705Z,74.54
2018-12-08T07:49:21.986Z,74.35
2018-12-08T07:51:50.120Z,75.03
2018-12-08T07:54:18.238Z,75.12
2018-12-08T07:56:46.458Z,75.45
2018-12-08T07:59:14.605Z,75.59
2018-12-08T08:01:42.727Z,75.92
2018-12-08T08:04:10.850Z,75.49
2018-12-08T08:06:38.993Z,76.09
2018-12-08T08:09:07.370Z,75.65
2018-12-08T08:11:35.487Z,75.48
2018-12-08T08:14:03.749Z,75.04
2018-12-08T08:16:31.962Z,74.54
2018-12-08T08:19:00.287Z,75.16
2018-12-08T08:21:28.403Z,74.78
2018-12-08T08:23:56.597Z,75.47
2018-12-08T08:26:24.833Z,76.08
2018-12-08T08:28:52.984Z,76.35
2018-12-08T08:31:21.696Z,75.49
2018-12-08T08:33:49.845Z,75.35
2018-12-08T08:36:17.973Z,75.57
2018-12-08T08:38:46.139Z,75.05
2018-12-08T08:41:14.374Z,74.81
2018-12-08T08:43:42.519Z,75.08
2018-12-08T08:46:10.645Z,74.74
2018-12-08T08:48:38.897Z,73.93
2018-12-08T08:51:07.169Z,74.62
2018-12-08T08:53:35.314Z,75.66
2018-12-08T08:56:03.430Z,75.21
2018-12-08T08:58:31.762Z,75.18
2018-12-08T09:01:00.006Z,75.37
2018-12-08T09:03:28.156Z,74.74
2018-12-08T09:05:56.309Z,74.71
2018-12-08T09:08:24.438Z,74.77
2018-12-08T09:10:53.231Z,74.37
2018-12-08T09:13:21.549Z,73.42
2018-12-08T09:15:50.007Z,74.39
2018-12-08T09:18:18.329Z,73.65
2018-12-08T09:20:46.447Z,73.26
2018-12-08T09:23:14.578Z,73.40
2018-12-08T09:25:42.889Z,72.35
2018-12-08T09:28:11.065Z,70.78
2018-12-08T09:30:39.199Z,71.71
2018-12-08T09:33:07.670Z,71.15
2018-12-08T09:35:35.799Z,71.36
2018-12-08T09:38:03.966Z,71.72
2018-12-08T09:40:32.102Z,71.32
2018-12-08T09:43:00.230Z,70.90
2018-12-08T09:45:28.342Z,71.61
2018-12-08T09:47:56.605Z,71.81
2018-12-08T09:50:25.156Z,72.36
2018-12-08T09:53:24.365Z,73.34
2018-12-08T09:55:52.646Z,74.16
2018-12-08T09:58:20.857Z,73.30
2018-12-08T10:00:48.999Z,73.31
2018-12-08T10:03:17.210Z,73.74
2018-12-08T10:05:45.346Z,75.59
2018-12-08T10:08:13.519Z,74.90
2018-12-08T10:10:41.750Z,74.22
2018-12-08T10:13:09.894Z,75.42
2018-12-08T10:15:38.110Z,75.60
2018-12-08T10:18:06.277Z,75.02
2018-12-08T10:20:34.447Z,75.95
2018-12-08T10:23:02.594Z,76.48
2018-12-08T10:25:30.826Z,77.03
2018-12-08T10:27:58.964Z,76.99
2018-12-08T10:30:27.133Z,79.91
2018-12-08T10:32:55.330Z,79.77
2018-12-08T10:35:23.657Z,79.70
2018-12-08T10:37:51.819Z,81.66
2018-12-08T10:40:20.045Z,83.12
2018-12-08T10:42:48.155Z,82.94
2018-12-08T10:45:16.487Z,82.82
2018-12-08T10:47:44.636Z,82.95
2018-12-08T10:50:12.618Z,81.38
2018-12-08T10:52:40.763Z,81.79
2018-12-08T10:55:09.286Z,82.55
2018-12-08T10:57:37.402Z,81.73
2018-12-08T11:00:11.171Z,81.67
2018-12-08T11:02:41.305Z,81.13
2018-12-08T11:05:09.552Z,81.14
2018-12-08T11:07:37.726Z,81.20
2018-12-08T11:10:06.307Z,82.96
2018-12-08T11:12:34.521Z,84.28
2018-12-08T11:15:02.667Z,83.14
2018-12-08T11:17:30.787Z,83.84
2018-12-08T11:19:59.813Z,83.28
2018-12-08T11:22:27.997Z,83.21
2018-12-08T11:24:56.173Z,82.93
2018-12-08T11:27:24.447Z,83.69
2018-12-08T11:29:52.898Z,82.79
2018-12-08T11:32:21.125Z,81.77
2018-12-08T11:34:49.358Z,81.75
2018-12-08T11:37:17.485Z,81.74
2018-12-08T11:39:45.632Z,82.16
2018-12-08T11:42:13.782Z,82.10
2018-12-08T11:44:42.324Z,83.00
2018-12-08T11:47:10.466Z,81.96
2018-12-08T11:49:38.639Z,82.58
2018-12-08T11:52:06.869Z,82.92
2018-12-08T11:54:35.189Z,83.54
2018-12-08T11:57:03.397Z,83.78
2018-12-08T11:59:31.830Z,84.07
2018-12-08T12:02:00.186Z,82.96
2018-12-08T12:04:28.425Z,84.08
2018-12-08T12:06:56.557Z,83.48
2018-12-08T12:09:24.873Z,82.93
2018-12-08T12:11:53.237Z,83.77
2018-12-08T12:14:36.258Z,83.41
2018-12-08T12:17:04.576Z,82.63
2018-12-08T12:19:32.742Z,80.97
2018-12-08T12:22:01.886Z,81.10
2018-12-08T12:24:30.008Z,80.76
2018-12-08T12:26:58.152Z,80.56
2018-12-08T12:29:26.304Z,79.37
2018-12-08T12:31:54.613Z,79.65
2018-12-08T12:34:22.800Z,78.87
2018-12-08T12:36:51.052Z,78.07
2018-12-08T12:39:19.209Z,77.88
2018-12-08T12:41:47.362Z,77.31
2018-12-08T12:44:15.602Z,78.08
2018-12-08T12:46:43.757Z,78.24
2018-12-08T12:49:12.100Z,77.84
2018-12-08T12:51:40.338Z,78.24
2018-12-08T12:54:08.509Z,77.46
2018-12-08T12:56:36.710Z,78.21
2018-12-08T12:59:05.051Z,79.53
2018-12-08T13:01:33.200Z,79.32
2018-12-08T13:04:02.057Z,79.77
2018-12-08T13:06:30.283Z,79.44
2018-12-08T13:08:58.741Z,79.84
2018-12-08T13:11:27.206Z,80.38
2018-12-08T13:13:55.545Z,81.26
2018-12-08T13:16:23.945Z,81.22
2018-12-08T13:18:52.893Z,81.83
2018-12-08T13:21:21.157Z,81.63
2018-12-08T13:23:49.286Z,81.00
2018-12-08T13:26:17.703Z,81.48
2018-12-08T13:28:45.846Z,83.35
2018-12-08T13:31:14.007Z,84.37
2018-12-08T13:33:42.166Z,84.17
2018-12-08T13:36:11.372Z,85.37
2018-12-08T13:38:39.997Z,85.45
2018-12-08T13:41:08.268Z,85.98
2018-12-08T13:43:36.409Z,86.89
2018-12-08T13:46:04.699Z,88.18
2018-12-08T13:48:34.352Z,90.57
2018-12-08T13:51:02.833Z,91.14
2018-12-08T13:53:36.667Z,92.85
2018-12-08T13:56:01.157Z,92.71
2018-12-08T13:58:29.365Z,91.77
2018-12-08T14:00:57.554Z,92.31
2018-12-08T14:03:25.849Z,90.28
2018-12-08T14:05:54.001Z,90.82
2018-12-08T14:08:22.108Z,89.89
2018-12-08T14:10:50.266Z,89.57
2018-12-08T14:13:18.485Z,89.03
2018-12-08T14:15:46.826Z,88.79
2018-12-08T14:18:14.967Z,86.51
2018-12-08T14:20:43.242Z,85.95
2018-12-08T14:23:11.377Z,85.76
2018-12-08T14:25:39.582Z,83.50
2018-12-08T14:28:08.108Z,84.07
2018-12-08T14:30:36.392Z,84.33
2018-12-08T14:33:04.685Z,83.92
2018-12-08T14:35:32.855Z,83.17
2018-12-08T14:38:01.006Z,82.77
2018-12-08T14:40:29.258Z,81.60
2018-12-08T14:42:57.443Z,80.75
2018-12-08T14:45:25.639Z,80.95
2018-12-08T14:47:53.803Z,80.59
2018-12-08T14:50:22.021Z,80.11
2018-12-08T14:52:50.170Z,79.90
2018-12-08T14:55:18.481Z,79.99
2018-12-08T14:57:46.637Z,79.36
2018-12-08T15:00:14.981Z,79.07
2018-12-08T15:02:43.375Z,79.43
2018-12-08T15:05:11.997Z,79.77
2018-12-08T15:07:40.359Z,79.28
2018-12-08T15:10:11.685Z,80.56
2018-12-08T15:12:39.964Z,79.71
2018-12-08T15:15:10.081Z,79.66
2018-12-08T15:17:38.514Z,80.19
2018-12-08T15:20:08.664Z,79.92
2018-12-08T15:22:36.835Z,80.54
2018-12-08T15:25:07.866Z,80.56
2018-12-08T15:27:36.225Z,81.01
2018-12-08T15:30:05.479Z,81.23
2018-12-08T15:32:33.706Z,81.35
2018-12-08T15:35:01.883Z,81.40
2018-12-08T15:37:30.168Z,81.25
2018-12-08T15:39:58.406Z,81.00
2018-12-08T15:42:26.545Z,81.23
2018-12-08T15:44:54.962Z,80.52
2018-12-08T15:47:23.318Z,80.57
2018-12-08T15:49:51.591Z,80.40
2018-12-08T15:52:19.822Z,79.88
2018-12-08T15:54:47.970Z,79.70
2018-12-08T15:57:16.119Z,79.41
2018-12-08T15:59:44.421Z,80.20
2018-12-08T16:02:12.799Z,80.46
2018-12-08T16:04:41.134Z,80.69
2018-12-08T16:07:09.540Z,80.67
2018-12-08T16:09:37.940Z,79.98
2018-12-08T16:12:07.484Z,79.54
2018-12-08T16:14:35.878Z,79.32
2018-12-08T16:17:04.278Z,78.61
2018-12-08T16:19:32.684Z,78.39
2018-12-08T16:22:00.959Z,79.13
2018-12-08T16:24:29.077Z,78.84
2018-12-08T16:26:57.386Z,78.93
2018-12-08T16:29:25.671Z,78.52
2018-12-08T16:31:53.881Z,78.43
2018-12-08T16:34:22.198Z,78.55
2018-12-08T16:36:50.417Z,79.32
2018-12-08T16:39:18.695Z,78.24
2018-12-08T16:41:46.859Z,78.55
2018-12-08T16:44:15.261Z,79.20
2018-12-08T16:46:43.586Z,78.68
2018-12-08T16:49:11.835Z,79.03
2018-12-08T16:51:40.105Z,78.38
2018-12-08T16:54:08.357Z,78.77
2018-12-08T16:56:36.481Z,78.57
2018-12-08T16:59:04.821Z,78.88
2018-12-08T17:01:33.079Z,79.13
2018-12-08T17:04:01.703Z,79.29
2018-12-08T17:06:29.976Z,79.05
2018-12-08T17:08:58.402Z,79.13
2018-12-08T17:11:26.658Z,79.18
2018-12-08T17:13:54.935Z,79.32
2018-12-08T17:16:23.170Z,79.62
2018-12-08T17:18:51.364Z,79.22
2018-12-08T17:21:19.745Z,79.15
2018-12-08T17:23:48.130Z,79.40
2018-12-08T17:26:16.532Z,79.33
2018-12-08T17:28:44.758Z,78.34
2018-12-08T17:31:13.003Z,78.14
2018-12-08T17:33:41.156Z,77.67
2018-12-08T17:36:09.461Z,77.72
2018-12-08T17:38:37.608Z,77.37
2018-12-08T17:41:05.889Z,77.49
2018-12-08T17:43:35.054Z,77.39
2018-12-08T17:46:03.197Z,77.75
2018-12-08T17:48:31.350Z,77.86
2018-12-08T17:51:00.700Z,77.97
2018-12-08T17:53:29.202Z,78.44
2018-12-08T17:55:57.388Z,77.25
2018-12-08T17:58:25.630Z,77.82
2018-12-08T18:00:53.955Z,78.29
2018-12-08T18:03:22.463Z,78.44
2018-12-08T18:05:51.058Z,78.88
2018-12-08T18:08:19.449Z,79.11
2018-12-08T18:10:47.849Z,79.34
2018-12-08T18:13:16.297Z,79.63
2018-12-08T18:15:44.699Z,79.41
2018-12-08T18:18:12.823Z,80.15
2018-12-08T18:20:41.376Z,80.51
2018-12-08T18:23:10.584Z,80.52
2018-12-08T18:25:38.730Z,80.18
2018-12-08T18:28:06.910Z,80.12
2018-12-08T18:30:35.086Z,80.09
2018-12-08T18:33:03.231Z,80.28
2018-12-08T18:35:31.400Z,79.29
2018-12-08T18:37:59.559Z,79.33
2018-12-08T18:40:27.750Z,78.95
2018-12-08T18:42:55.953Z,79.08
2018-12-08T18:45:24.116Z,78.91
2018-12-08T18:47:52.280Z,79.12
2018-12-08T18:50:20.547Z,79.15
2018-12-08T18:52:48.683Z,79.45
2018-12-08T18:55:16.900Z,79.96
2018-12-08T18:57:45.143Z,80.38
2018-12-08T19:00:14.497Z,80.72
2018-12-08T19:02:42.728Z,80.84
2018-12-08T19:05:11.710Z,80.65
2018-12-08T19:07:39.851Z,80.34
2018-12-08T19:10:08.847Z,79.83
2018-12-08T19:12:37.034Z,79.86
2018-12-08T19:15:06.414Z,79.57
2018-12-08T19:17:34.578Z,79.48
2018-12-08T19:20:02.841Z,79.56
2018-12-08T19:22:31.242Z,79.21
2018-12-08T19:24:59.374Z,79.29
2018-12-08T19:27:27.523Z,78.79
2018-12-08T19:29:55.645Z,78.90
2018-12-08T19:32:23.935Z,79.28
2018-12-08T19:34:52.118Z,79.31
2018-12-08T19:37:20.245Z,79.24
2018-12-08T19:39:48.445Z,79.39
2018-12-08T19:42:16.578Z,79.89
2018-12-08T19:44:44.774Z,79.38
2018-12-08T19:47:13.001Z,79.97
2018-12-08T19:49:41.221Z,80.18
2018-12-08T19:52:09.467Z,80.21
2018-12-08T19:54:37.657Z,80.04
2018-12-08T19:57:05.901Z,79.91
2018-12-08T19:59:34.132Z,80.51
2018-12-08T20:02:02.320Z,81.17
2018-12-08T20:04:30.434Z,82.34
2018-12-08T20:06:58.735Z,84.21
2018-12-08T20:09:26.928Z,85.40
2018-12-08T20:11:55.071Z,86.12
2018-12-08T20:14:23.185Z,86.43
2018-12-08T20:16:51.444Z,87.27
2018-12-08T20:19:19.777Z,87.52
2018-12-08T20:21:48.002Z,87.85
2018-12-08T20:24:16.123Z,88.08
2018-12-08T20:26:44.476Z,87.93
2018-12-08T20:29:12.658Z,88.43
2018-12-08T20:31:40.812Z,88.56
2018-12-08T20:34:09.057Z,89.71
2018-12-08T20:36:37.707Z,90.04
2018-12-08T20:39:07.283Z,90.70
2018-12-08T20:41:35.458Z,90.72
2018-12-08T20:44:03.943Z,90.80
2018-12-08T20:46:32.108Z,91.51
2018-12-08T20:49:00.237Z,91.25
2018-12-08T20:51:28.378Z,91.91
2018-12-08T20:53:56.591Z,91.71
2018-12-08T20:56:24.746Z,91.52
2018-12-08T20:58:52.876Z,91.75
2018-12-08T21:01:21.006Z,92.26
2018-12-08T21:03:49.258Z,91.86
2018-12-08T21:06:17.515Z,91.63
2018-12-08T21:08:45.881Z,91.05
2018-12-08T21:11:14.081Z,90.70
2018-12-08T21:13:42.251Z,89.92
2018-12-08T21:16:10.406Z,89.11
2018-12-08T21:18:38.578Z,88.54
2018-12-08T21:21:06.994Z,88.23
2018-12-08T21:23:35.264Z,88.26
2018-12-08T21:26:03.366Z,88.06
2018-12-08T21:28:31.571Z,87.62
2018-12-08T21:30:59.793Z,87.49
2018-12-08T21:33:27.960Z,87.72
2018-12-08T21:35:56.131Z,88.13
2018-12-08T21:38:24.321Z,88.58
2018-12-08T21:40:52.499Z,88.71
2018-12-08T21:43:20.677Z,88.85
2018-12-08T21:45:48.805Z,88.06
2018-12-08T21:48:17.240Z,87.44
2018-12-08T21:50:45.356Z,87.59
2018-12-08T21:53:13.498Z,88.13
2018-12-08T21:55:41.641Z,87.02
2018-12-08T21:58:09.773Z,87.47
2018-12-08T22:02:39.757Z,88.21
2018-12-08T22:05:08.193Z,87.90
2018-12-08T22:07:36.381Z,87.90
2018-12-08T22:10:05.712Z,88.04
2018-12-08T22:12:33.949Z,88.38
2018-12-08T22:15:06.265Z,87.81
2018-12-08T22:17:34.506Z,88.31
2018-12-08T22:20:02.711Z,87.78
2018-12-08T22:22:30.882Z,87.33
2018-12-08T22:25:00.839Z,87.25
2018-12-08T22:27:29.699Z,87.41
2018-12-08T22:29:57.912Z,87.45
2018-12-08T22:32:26.038Z,87.53
2018-12-08T22:34:54.174Z,87.94
2018-12-08T22:37:22.545Z,87.67
2018-12-08T22:39:50.658Z,86.83
2018-12-08T22:42:19.252Z,87.69
2018-12-08T22:44:47.474Z,87.33
2018-12-08T22:47:15.654Z,87.25
2018-12-08T22:49:43.858Z,86.74
2018-12-08T22:52:12.054Z,88.01
2018-12-08T22:54:40.267Z,88.84
2018-12-08T22:57:08.566Z,88.42
2018-12-08T22:59:36.703Z,88.76
2018-12-08T23:02:05.276Z,87.74
2018-12-08T23:04:33.537Z,87.58
2018-12-08T23:07:03.640Z,86.58
2018-12-08T23:09:32.071Z,86.41
2018-12-08T23:12:00.403Z,85.76
2018-12-08T23:14:28.574Z,86.27
2018-12-08T23:16:56.758Z,86.36
2018-12-08T23:19:24.889Z,85.39
2018-12-08T23:21:53.718Z,84.81
2018-12-08T23:24:22.072Z,84.02
2018-12-08T23:26:51.132Z,84.91
2018-12-08T23:29:19.385Z,84.54
2018-12-08T23:31:47.623Z,86.04
2018-12-08T23:34:16.784Z,86.58
2018-12-08T23:36:44.950Z,87.04
2018-12-08T23:39:13.106Z,87.81
2018-12-08T23:41:41.385Z,87.03
2018-12-08T23:44:09.744Z,87.43
2018-12-08T23:46:37.924Z,87.47
2018-12-08T23:49:11.226Z,87.30
2018-12-08T23:51:36.860Z,86.21
2018-12-08T23:54:05.170Z,84.82
2018-12-08T23:56:33.442Z,83.87
2018-12-08T23:59:01.701Z,83.80
